Terminal Aerodrome Forecast
Issued by NWS

Home | Current Version | Previous Version | Text Only | Print | Product List | Glossary On
Versions: 1 2 3 4 5 6 7 8 9 10 11 12 13
000
FTUS45 KPSR 301100
TAFBLH
TAF
KBLH 301120Z 3012/3112 VRB05KT P6SM FEW250
     FM301800 17009KT P6SM FEW120
     FM310300 23009KT P6SM SCT250
      AMD NOT SKED=

USA.gov is the U.S. government's official web portal to all federal, state and local government web resources and services.